Time;durP1;ratioP1;P1;durP2;ratioP2;P2;SDS_P1;SDS_P2;PMS_P1;PMS_P2;Temp;Humidity;BMP_temperature;BMP_pressure;BME280_temperature;BME280_humidity;BME280_pressure;Samples;Min_cycle;Max_cycle;Signal;HPM_P1;HPM_P2
2022/05/21 00:00:35;;;;;;;6.78;5.40;;;16.00;99.90;;;;;;2088697;28;20401;-71
2022/05/21 00:01:36;;;;;;;6.00;5.22;;;16.00;99.90;;;;;;2087335;28;20029;-71
2022/05/21 00:02:37;;;;;;;9.65;6.03;;;16.00;99.90;;;;;;2088178;28;20469;-71
2022/05/21 00:03:37;;;;;;;7.22;5.38;;;16.00;99.90;;;;;;2088993;28;20136;-71
2022/05/21 00:04:41;;;;;;;9.57;5.97;;;15.90;99.90;;;;;;2087028;28;20481;-71
2022/05/21 00:05:42;;;;;;;10.10;6.80;;;16.00;99.90;;;;;;2081639;28;20411;-71
2022/05/21 00:06:42;;;;;;;8.23;6.15;;;15.90;99.90;;;;;;2081038;28;20029;-71
2022/05/21 00:07:44;;;;;;;9.50;6.00;;;15.90;99.90;;;;;;2089252;28;20035;-71
2022/05/21 00:08:44;;;;;;;10.13;6.13;;;15.90;99.90;;;;;;2089546;28;20400;-71
2022/05/21 00:09:45;;;;;;;7.70;5.75;;;15.90;99.90;;;;;;2089292;28;20040;-71
2022/05/21 00:10:45;;;;;;;9.20;5.78;;;15.90;99.90;;;;;;2085146;28;20024;-71
2022/05/21 00:11:46;;;;;;;11.10;6.15;;;15.90;99.90;;;;;;2081705;28;20013;-71
2022/05/21 00:12:47;;;;;;;8.82;5.72;;;15.90;99.90;;;;;;2083373;28;20117;-71
2022/05/21 00:13:48;;;;;;;10.32;5.60;;;15.90;99.90;;;;;;2085014;28;20769;-71
2022/05/21 00:14:52;;;;;;;8.65;5.63;;;15.90;99.90;;;;;;2085126;28;20665;-71
2022/05/21 00:15:52;;;;;;;10.40;5.82;;;15.90;99.90;;;;;;2080698;28;20401;-71
2022/05/21 00:16:53;;;;;;;9.15;6.07;;;15.90;99.90;;;;;;2089087;28;20017;-71
2022/05/21 00:17:54;;;;;;;9.25;5.93;;;15.90;99.90;;;;;;2088830;28;20051;-72
2022/05/21 00:18:54;;;;;;;9.98;6.13;;;16.00;99.90;;;;;;2087938;28;20020;-71
2022/05/21 00:19:55;;;;;;;11.55;7.15;;;16.00;99.90;;;;;;2084057;28;20017;-71
2022/05/21 00:20:55;;;;;;;8.30;6.63;;;16.00;99.90;;;;;;2086819;28;20063;-71
2022/05/21 00:21:56;;;;;;;10.10;7.32;;;16.00;99.90;;;;;;2085916;28;20049;-71
2022/05/21 00:22:58;;;;;;;8.35;6.70;;;16.00;99.90;;;;;;2083012;28;20037;-71
2022/05/21 00:23:58;;;;;;;8.98;6.53;;;15.90;99.90;;;;;;2088340;28;20025;-71
2022/05/21 00:24:59;;;;;;;11.98;6.70;;;15.90;99.90;;;;;;2091055;28;20017;-71
2022/05/21 00:26:05;;;;;;;8.30;7.07;;;15.90;99.90;;;;;;2088812;28;20168;-71
2022/05/21 00:27:07;;;;;;;9.75;6.97;;;15.90;99.90;;;;;;2088853;28;20024;-71
2022/05/21 00:28:07;;;;;;;11.38;7.45;;;15.90;99.90;;;;;;2083733;28;20017;-71
2022/05/21 00:29:08;;;;;;;9.27;7.85;;;15.90;99.90;;;;;;2085984;28;20049;-71
2022/05/21 00:30:09;;;;;;;9.40;7.25;;;15.90;99.90;;;;;;2082206;28;20392;-71
2022/05/21 00:31:12;;;;;;;8.05;7.20;;;15.90;99.90;;;;;;2082984;28;20088;-71
2022/05/21 00:32:12;;;;;;;12.65;7.93;;;15.80;99.90;;;;;;2087550;28;20451;-72
2022/05/21 00:33:13;;;;;;;9.85;7.03;;;15.80;99.90;;;;;;2083130;28;20025;-71
2022/05/21 00:34:14;;;;;;;10.73;7.68;;;15.80;99.90;;;;;;2089592;28;20021;-71
2022/05/21 00:35:14;;;;;;;13.20;8.48;;;15.80;99.90;;;;;;2084485;28;20040;-71
2022/05/21 00:36:16;;;;;;;11.27;8.75;;;15.80;99.90;;;;;;2083079;28;20025;-71
2022/05/21 00:37:16;;;;;;;8.65;7.60;;;15.80;99.90;;;;;;2085699;28;20029;-71
2022/05/21 00:38:17;;;;;;;10.40;8.60;;;15.80;99.90;;;;;;2084531;28;20059;-71
2022/05/21 00:39:18;;;;;;;10.35;7.60;;;15.80;99.90;;;;;;2083963;28;20017;-71
2022/05/21 00:40:18;;;;;;;7.20;6.30;;;15.80;99.90;;;;;;2087414;28;20021;-71
2022/05/21 00:41:20;;;;;;;9.73;8.32;;;15.80;99.90;;;;;;2083410;28;20080;-71
2022/05/21 00:42:21;;;;;;;9.40;7.95;;;15.80;99.90;;;;;;2085170;28;20376;-71
2022/05/21 00:43:42;;;;;;;12.25;8.88;;;15.80;99.90;;;;;;2088452;28;20033;-71
2022/05/21 00:44:43;;;;;;;13.95;9.35;;;15.80;99.90;;;;;;2087690;28;20449;-71
2022/05/21 00:45:43;;;;;;;12.68;9.45;;;15.80;99.90;;;;;;2085874;28;20025;-71
2022/05/21 00:46:45;;;;;;;14.18;8.95;;;15.80;99.90;;;;;;2088590;28;20103;-71
2022/05/21 00:47:46;;;;;;;12.45;9.85;;;15.80;99.90;;;;;;2088953;28;20384;-71
2022/05/21 00:49:07;;;;;;;13.60;10.00;;;15.80;99.90;;;;;;2087045;28;20206;-71
2022/05/21 00:50:11;;;;;;;10.40;8.88;;;15.70;99.90;;;;;;2089158;28;20116;-71
2022/05/21 00:51:20;;;;;;;12.38;9.70;;;15.70;99.90;;;;;;2082276;28;20037;-71
2022/05/21 00:52:24;;;;;;;10.73;8.70;;;15.70;99.90;;;;;;2081792;28;20128;-71
2022/05/21 00:53:25;;;;;;;10.13;8.98;;;15.70;99.90;;;;;;2085321;28;20075;-71
2022/05/21 00:54:31;;;;;;;13.90;10.23;;;15.70;99.90;;;;;;2086101;28;20083;-71
2022/05/21 00:55:32;;;;;;;10.05;8.82;;;15.70;99.90;;;;;;2087664;28;20037;-71
2022/05/21 00:56:38;;;;;;;9.63;8.63;;;15.70;99.90;;;;;;2083431;28;20026;-71
2022/05/21 00:57:43;;;;;;;8.80;7.30;;;15.60;99.90;;;;;;2082585;28;20034;-72
2022/05/21 01:00:20;;;;;;;10.07;7.75;;;15.60;99.90;;;;;;2085001;28;20432;-72
2022/05/21 01:01:22;;;;;;;11.00;9.77;;;15.60;99.90;;;;;;2085020;28;20029;-72
2022/05/21 01:02:27;;;;;;;10.95;9.80;;;15.50;99.90;;;;;;2085176;28;20355;-72
2022/05/21 01:03:29;;;;;;;11.68;10.00;;;15.50;99.90;;;;;;2085821;28;20021;-72
2022/05/21 01:04:31;;;;;;;10.43;8.95;;;15.50;99.90;;;;;;2083234;28;20396;-71
2022/05/21 01:05:33;;;;;;;11.45;9.02;;;15.50;99.90;;;;;;2084138;28;20606;-71
2022/05/21 01:06:35;;;;;;;10.30;9.15;;;15.40;99.90;;;;;;2089932;28;20096;-71
2022/05/21 01:07:41;;;;;;;10.40;8.50;;;15.40;99.90;;;;;;2087277;28;20567;-71
2022/05/21 01:08:42;;;;;;;12.05;10.93;;;15.40;99.90;;;;;;2084730;28;20090;-72
2022/05/21 01:09:50;;;;;;;14.45;10.55;;;15.40;99.90;;;;;;2077069;28;20030;-71
2022/05/21 01:10:57;;;;;;;12.23;10.88;;;15.40;99.90;;;;;;2081269;28;20116;-71
2022/05/21 01:11:58;;;;;;;12.02;10.00;;;15.30;99.90;;;;;;2081160;28;20056;-71
2022/05/21 01:12:58;;;;;;;12.77;11.50;;;15.30;99.90;;;;;;2088396;28;20047;-71
2022/05/21 01:13:59;;;;;;;11.18;10.00;;;15.30;99.90;;;;;;2082152;28;20087;-71
2022/05/21 01:15:06;;;;;;;11.23;9.35;;;15.30;99.90;;;;;;2082431;28;20026;-71
2022/05/21 01:16:07;;;;;;;9.48;8.55;;;15.30;99.90;;;;;;2086965;28;20074;-71
2022/05/21 01:17:08;;;;;;;12.88;11.10;;;15.30;99.90;;;;;;2089061;28;20075;-71
2022/05/21 01:18:10;;;;;;;12.75;11.45;;;15.30;99.90;;;;;;2082660;28;20083;-71
2022/05/21 01:19:10;;;;;;;10.75;9.27;;;15.20;99.90;;;;;;2088945;28;20030;-71
2022/05/21 01:20:18;;;;;;;12.52;11.23;;;15.20;99.90;;;;;;2085552;28;20083;-71
2022/05/21 01:21:18;;;;;;;10.80;9.70;;;15.20;99.90;;;;;;2086625;28;20084;-71
2022/05/21 01:22:28;;;;;;;12.98;11.20;;;15.20;99.90;;;;;;2086648;28;20029;-71
2022/05/21 01:23:29;;;;;;;11.88;10.68;;;15.20;99.90;;;;;;2085566;28;20528;-71
2022/05/21 01:24:29;;;;;;;13.23;11.82;;;15.20;99.90;;;;;;2085428;28;20021;-71
2022/05/21 01:25:31;;;;;;;13.38;11.35;;;15.20;99.90;;;;;;2084665;28;20029;-71
2022/05/21 01:26:34;;;;;;;12.90;11.68;;;15.20;99.90;;;;;;2084911;28;20037;-71
2022/05/21 01:27:34;;;;;;;11.55;10.32;;;15.20;99.90;;;;;;2090782;28;20511;-71
2022/05/21 01:28:37;;;;;;;11.45;10.35;;;15.20;99.90;;;;;;2087704;28;20407;-71
2022/05/21 01:29:38;;;;;;;11.38;10.30;;;15.20;99.90;;;;;;2088852;28;20029;-71
2022/05/21 01:30:46;;;;;;;12.63;11.20;;;15.20;99.90;;;;;;2086601;28;20025;-71
2022/05/21 01:31:51;;;;;;;12.75;11.25;;;15.20;99.90;;;;;;2088148;28;20039;-71
2022/05/21 01:32:52;;;;;;;14.30;11.60;;;15.20;99.90;;;;;;2087315;28;20116;-71
2022/05/21 01:33:54;;;;;;;12.93;10.88;;;15.10;99.90;;;;;;2081518;28;20025;-71
2022/05/21 01:34:56;;;;;;;11.20;10.00;;;15.10;99.90;;;;;;2086474;28;20021;-71
2022/05/21 01:35:58;;;;;;;11.43;10.23;;;15.10;99.90;;;;;;2085313;28;20385;-71
2022/05/21 01:36:58;;;;;;;10.60;9.43;;;15.00;99.90;;;;;;2085548;28;20025;-71
2022/05/21 01:37:59;;;;;;;11.63;9.80;;;15.00;99.90;;;;;;2086135;28;20109;-71
2022/05/21 01:39:00;;;;;;;10.50;9.50;;;15.00;99.90;;;;;;2083240;28;20518;-71
2022/05/21 01:40:00;;;;;;;11.77;9.80;;;14.90;99.90;;;;;;2085702;28;20119;-71
2022/05/21 01:41:01;;;;;;;12.18;10.10;;;14.90;99.90;;;;;;2085336;28;20931;-71
2022/05/21 01:42:02;;;;;;;11.85;9.80;;;14.90;99.90;;;;;;2085496;28;20032;-72
2022/05/21 01:44:38;;;;;;;11.38;8.82;;;14.90;99.90;;;;;;2084853;28;20026;-71
2022/05/21 01:45:38;;;;;;;10.45;8.88;;;14.90;99.90;;;;;;2088066;28;20045;-71
2022/05/21 01:46:39;;;;;;;9.73;8.73;;;14.80;99.90;;;;;;2085124;28;20026;-71
2022/05/21 01:47:44;;;;;;;11.85;8.20;;;14.80;99.90;;;;;;2083186;28;20022;-71
2022/05/21 01:48:45;;;;;;;9.05;8.15;;;14.80;99.90;;;;;;2083406;28;20566;-71
2022/05/21 01:49:46;;;;;;;10.30;8.82;;;14.80;99.90;;;;;;2080577;28;20035;-71
2022/05/21 01:50:51;;;;;;;12.13;8.32;;;14.80;99.90;;;;;;2089378;28;20028;-71
2022/05/21 01:51:52;;;;;;;8.93;8.02;;;14.80;99.90;;;;;;2089325;28;20490;-71
2022/05/21 01:52:52;;;;;;;8.82;7.93;;;14.80;99.90;;;;;;2084539;28;20464;-71
2022/05/21 01:53:53;;;;;;;9.65;7.63;;;14.80;99.90;;;;;;2088113;28;20056;-71
2022/05/21 01:54:53;;;;;;;9.65;8.18;;;14.70;99.90;;;;;;2085295;28;20040;-71
2022/05/21 01:55:56;;;;;;;8.88;7.60;;;14.70;99.90;;;;;;2084557;28;20017;-71
2022/05/21 01:56:57;;;;;;;8.73;7.28;;;14.70;99.90;;;;;;2084212;28;20051;-71
2022/05/21 01:57:58;;;;;;;9.63;8.43;;;14.70;99.90;;;;;;2089491;28;20025;-71
2022/05/21 01:58:58;;;;;;;8.48;7.20;;;14.70;99.90;;;;;;2090280;28;20222;-71
2022/05/21 01:59:59;;;;;;;9.07;7.53;;;14.70;99.90;;;;;;2088921;28;20066;-71
2022/05/21 02:00:59;;;;;;;9.38;7.60;;;14.70;99.90;;;;;;2082806;28;20033;-71
2022/05/21 02:02:01;;;;;;;7.95;6.82;;;14.70;99.90;;;;;;2083491;28;20104;-71
2022/05/21 02:03:02;;;;;;;9.55;7.43;;;14.70;99.90;;;;;;2085707;28;20493;-71
2022/05/21 02:04:03;;;;;;;7.70;6.90;;;14.70;99.90;;;;;;2087066;28;20373;-71
2022/05/21 02:05:04;;;;;;;9.73;6.88;;;14.70;99.90;;;;;;2082068;28;20031;-71
2022/05/21 02:06:05;;;;;;;8.00;6.97;;;14.70;99.90;;;;;;2082963;28;20029;-71
2022/05/21 02:07:06;;;;;;;8.02;7.15;;;14.70;99.90;;;;;;2083154;28;20017;-71
2022/05/21 02:08:07;;;;;;;8.15;7.35;;;14.70;99.90;;;;;;2083729;28;20049;-71
2022/05/21 02:09:08;;;;;;;10.40;7.25;;;14.70;99.90;;;;;;2085927;28;20025;-71
2022/05/21 02:10:09;;;;;;;8.80;6.68;;;14.70;99.90;;;;;;2082446;28;20030;-71
2022/05/21 02:11:09;;;;;;;8.15;7.00;;;14.70;99.90;;;;;;2085451;28;20041;-71
2022/05/21 02:12:14;;;;;;;9.30;7.45;;;14.70;99.90;;;;;;2087009;28;20040;-71
2022/05/21 02:13:18;;;;;;;7.88;6.38;;;14.70;99.90;;;;;;2086615;28;20378;-71
2022/05/21 02:14:19;;;;;;;6.40;5.60;;;14.70;99.90;;;;;;2088130;28;20124;-72
2022/05/21 02:15:19;;;;;;;8.77;6.28;;;14.70;99.90;;;;;;2084100;28;20033;-71
2022/05/21 02:16:20;;;;;;;8.25;6.35;;;14.70;99.90;;;;;;2089054;28;20013;-71
2022/05/21 02:17:21;;;;;;;8.13;6.65;;;14.70;99.90;;;;;;2082103;28;20032;-71
2022/05/21 02:18:22;;;;;;;7.03;6.28;;;14.70;99.90;;;;;;2087021;28;20472;-71
2022/05/21 02:19:23;;;;;;;6.93;6.22;;;14.70;99.90;;;;;;2087826;28;20428;-71
2022/05/21 02:20:23;;;;;;;8.25;6.32;;;14.70;99.90;;;;;;2085544;28;20447;-71
2022/05/21 02:21:24;;;;;;;10.98;6.55;;;14.70;99.90;;;;;;2088881;28;20114;-71
2022/05/21 02:22:26;;;;;;;8.85;6.60;;;14.70;99.90;;;;;;2091967;28;20036;-71
2022/05/21 02:23:27;;;;;;;6.30;5.53;;;14.70;99.90;;;;;;2083616;28;20030;-71
2022/05/21 02:24:27;;;;;;;7.45;6.28;;;14.70;99.90;;;;;;2081383;28;20477;-71
2022/05/21 02:25:28;;;;;;;7.57;6.10;;;14.70;99.90;;;;;;2085866;28;20091;-71
2022/05/21 02:26:32;;;;;;;6.13;5.53;;;14.70;99.90;;;;;;2080916;28;20030;-71
2022/05/21 02:27:33;;;;;;;7.60;5.72;;;14.70;99.90;;;;;;2085157;28;20087;-71
2022/05/21 02:28:33;;;;;;;9.45;6.32;;;14.70;99.90;;;;;;2083930;28;20091;-71
2022/05/21 02:29:34;;;;;;;6.75;5.25;;;14.70;99.90;;;;;;2088942;28;20104;-71
2022/05/21 02:30:35;;;;;;;7.47;5.55;;;14.70;99.90;;;;;;2090348;28;20465;-71
2022/05/21 02:31:35;;;;;;;7.68;5.53;;;14.70;99.90;;;;;;2089223;28;20062;-71
2022/05/21 02:32:36;;;;;;;12.50;6.35;;;14.70;99.90;;;;;;2090972;28;20124;-71
2022/05/21 02:33:36;;;;;;;8.50;5.53;;;14.70;99.90;;;;;;2082004;28;20034;-71
2022/05/21 02:34:37;;;;;;;6.05;5.40;;;14.70;99.90;;;;;;2086686;28;20049;-71
2022/05/21 02:35:37;;;;;;;5.90;5.00;;;14.70;99.90;;;;;;2083068;28;20108;-71
2022/05/21 02:39:25;;;;;;;5.45;4.97;;;14.70;99.90;;;;;;2085812;28;20029;-71
2022/05/21 02:40:26;;;;;;;6.17;5.20;;;14.70;99.90;;;;;;2085992;28;20032;-71
2022/05/21 02:41:26;;;;;;;6.30;4.95;;;14.70;99.90;;;;;;2088273;28;20085;-71
2022/05/21 02:43:46;;;;;;;7.30;4.88;;;14.70;99.90;;;;;;2085842;28;20033;-71
2022/05/21 02:44:47;;;;;;;7.28;4.82;;;14.70;99.90;;;;;;2085005;28;20576;-71
2022/05/21 02:45:47;;;;;;;5.70;5.15;;;14.70;99.90;;;;;;2088513;28;20016;-71
2022/05/21 02:46:48;;;;;;;7.75;5.05;;;14.80;99.90;;;;;;2090151;28;20023;-71
2022/05/21 02:47:49;;;;;;;7.00;4.63;;;14.80;99.90;;;;;;2086554;28;20056;-71
2022/05/21 02:48:50;;;;;;;6.38;4.82;;;14.80;99.90;;;;;;2081211;28;20116;-71
2022/05/21 02:49:51;;;;;;;5.07;4.30;;;14.80;99.90;;;;;;2083738;28;20028;-71
2022/05/21 02:50:51;;;;;;;6.57;4.50;;;14.80;99.90;;;;;;2087729;28;20059;-71
2022/05/21 02:51:52;;;;;;;6.68;4.85;;;14.80;99.90;;;;;;2083825;28;20025;-71
2022/05/21 02:52:53;;;;;;;8.13;4.88;;;14.80;99.90;;;;;;2084155;28;20024;-71
2022/05/21 02:53:54;;;;;;;9.02;5.07;;;14.80;99.90;;;;;;2084311;28;20103;-71
2022/05/21 02:54:54;;;;;;;6.93;4.28;;;14.80;99.90;;;;;;2087454;28;20032;-71
2022/05/21 02:55:55;;;;;;;6.85;4.10;;;14.80;99.90;;;;;;2088665;28;20025;-71
2022/05/21 02:56:55;;;;;;;5.63;4.30;;;14.80;99.90;;;;;;2089832;28;20505;-71
2022/05/21 02:57:56;;;;;;;9.55;5.00;;;14.80;99.90;;;;;;2088111;28;20488;-71
2022/05/21 02:58:57;;;;;;;11.35;5.20;;;14.80;99.90;;;;;;2089717;28;20629;-71
2022/05/21 03:00:04;;;;;;;7.18;4.32;;;14.80;99.90;;;;;;2085574;28;20587;-70
2022/05/21 03:01:05;;;;;;;6.63;4.28;;;14.80;99.90;;;;;;2085785;28;20503;-71
2022/05/21 03:02:06;;;;;;;6.55;4.25;;;14.80;99.90;;;;;;2084274;28;20443;-71
2022/05/21 03:03:06;;;;;;;7.50;4.72;;;14.80;99.90;;;;;;2087627;28;20028;-71
2022/05/21 03:04:07;;;;;;;6.95;4.72;;;14.80;99.90;;;;;;2088041;28;20053;-71
2022/05/21 03:05:09;;;;;;;7.28;4.75;;;14.80;99.90;;;;;;2083935;28;20492;-71
2022/05/21 03:06:10;;;;;;;6.20;4.28;;;14.80;99.90;;;;;;2087144;28;20025;-71
2022/05/21 03:07:11;;;;;;;7.07;4.47;;;14.80;99.90;;;;;;2088289;28;20023;-71
2022/05/21 03:10:55;;;;;;;9.07;4.88;;;14.80;99.90;;;;;;2087506;28;20496;-71
2022/05/21 03:11:55;;;;;;;5.82;4.50;;;14.80;99.90;;;;;;2088447;28;20032;-71
2022/05/21 03:13:01;;;;;;;5.25;4.50;;;14.80;99.90;;;;;;2085793;28;20112;-71
2022/05/21 03:14:02;;;;;;;7.03;4.38;;;14.80;99.90;;;;;;2090497;28;20037;-71
2022/05/21 03:15:03;;;;;;;8.02;5.43;;;14.80;99.90;;;;;;2082601;28;20032;-71
2022/05/21 03:16:03;;;;;;;9.30;5.25;;;14.80;99.90;;;;;;2081817;28;20069;-71
2022/05/21 03:17:05;;;;;;;8.23;5.55;;;14.80;99.90;;;;;;2083625;28;20025;-71
2022/05/21 03:18:08;;;;;;;8.95;5.43;;;14.80;99.90;;;;;;2085267;28;20458;-71
2022/05/21 03:19:09;;;;;;;7.85;5.07;;;14.80;99.90;;;;;;2084031;28;20097;-71
2022/05/21 03:20:13;;;;;;;12.00;5.82;;;14.80;99.90;;;;;;2088820;28;20028;-71
2022/05/21 03:21:14;;;;;;;7.75;5.63;;;14.80;99.90;;;;;;2086577;28;20030;-71
2022/05/21 03:22:15;;;;;;;10.52;6.55;;;14.80;99.90;;;;;;2090249;28;20079;-71
2022/05/21 03:23:15;;;;;;;13.68;6.40;;;14.80;99.90;;;;;;2083730;28;20497;-71
2022/05/21 03:24:16;;;;;;;10.45;6.03;;;14.80;99.90;;;;;;2087957;28;20091;-71
2022/05/21 03:25:16;;;;;;;9.02;6.38;;;14.80;99.90;;;;;;2091714;28;20495;-71
2022/05/21 03:26:17;;;;;;;9.35;6.28;;;14.80;99.90;;;;;;2079367;28;20437;-71
2022/05/21 03:27:17;;;;;;;8.23;6.38;;;14.80;99.90;;;;;;2090842;28;20654;-71
2022/05/21 03:28:19;;;;;;;10.20;6.90;;;14.90;99.90;;;;;;2084103;28;20539;-71
2022/05/21 03:29:20;;;;;;;9.18;6.30;;;14.80;99.90;;;;;;2082851;28;20057;-71
2022/05/21 03:30:25;;;;;;;12.13;7.40;;;14.80;99.90;;;;;;2082880;28;20029;-71
2022/05/21 03:31:25;;;;;;;11.25;7.63;;;14.80;99.90;;;;;;2083792;28;20064;-71
2022/05/21 03:32:26;;;;;;;13.15;7.57;;;14.80;99.90;;;;;;2087884;28;20018;-71
2022/05/21 03:33:26;;;;;;;12.48;7.53;;;14.80;99.90;;;;;;2092305;28;20100;-71
2022/05/21 03:34:27;;;;;;;7.57;5.88;;;14.80;99.90;;;;;;2092701;28;20052;-72
2022/05/21 03:35:28;;;;;;;10.52;6.97;;;14.80;99.90;;;;;;2089758;28;20030;-71
2022/05/21 03:36:28;;;;;;;10.40;6.60;;;14.80;99.90;;;;;;2088013;28;20106;-71
2022/05/21 03:37:29;;;;;;;9.05;7.47;;;14.80;99.90;;;;;;2087550;28;20083;-71
2022/05/21 03:38:29;;;;;;;11.13;7.05;;;14.80;99.90;;;;;;2086789;28;20036;-71
2022/05/21 03:39:30;;;;;;;14.10;7.60;;;14.80;99.90;;;;;;2085047;28;20108;-71
2022/05/21 03:40:32;;;;;;;9.45;6.40;;;14.80;99.90;;;;;;2087231;28;20033;-71
2022/05/21 03:41:32;;;;;;;9.63;6.97;;;14.80;99.90;;;;;;2092566;28;20112;-71
2022/05/21 03:42:34;;;;;;;8.23;7.32;;;14.80;99.90;;;;;;2091863;28;20033;-71
2022/05/21 03:43:36;;;;;;;11.18;7.10;;;14.80;99.90;;;;;;2090437;28;20105;-71
2022/05/21 03:44:36;;;;;;;9.80;6.97;;;14.80;99.90;;;;;;2084487;28;20009;-72
2022/05/21 03:45:37;;;;;;;8.52;6.22;;;14.80;99.90;;;;;;2086079;28;20038;-71
2022/05/21 03:46:38;;;;;;;10.80;6.63;;;14.90;99.90;;;;;;2086148;28;20021;-71
2022/05/21 03:47:41;;;;;;;7.72;6.68;;;14.90;99.90;;;;;;2088054;28;20035;-71
2022/05/21 03:48:41;;;;;;;10.90;7.00;;;14.90;99.90;;;;;;2085886;28;20026;-71
2022/05/21 03:49:42;;;;;;;8.52;6.07;;;14.90;99.90;;;;;;2087915;28;20024;-71
2022/05/21 03:50:43;;;;;;;9.98;6.50;;;14.90;99.90;;;;;;2091427;28;20399;-71
2022/05/21 03:51:43;;;;;;;12.35;6.53;;;14.90;99.90;;;;;;2089597;28;20027;-71
2022/05/21 03:52:44;;;;;;;8.20;6.65;;;14.90;99.90;;;;;;2086440;28;20074;-71
2022/05/21 03:53:44;;;;;;;10.00;7.10;;;14.90;99.90;;;;;;2088057;28;20059;-71
2022/05/21 03:54:45;;;;;;;11.52;7.32;;;14.90;99.90;;;;;;2087357;28;20025;-71
2022/05/21 03:55:46;;;;;;;10.45;6.85;;;14.90;99.90;;;;;;2087808;28;20025;-71
2022/05/21 03:56:46;;;;;;;10.93;6.28;;;15.00;99.90;;;;;;2087256;28;20158;-71
2022/05/21 03:57:47;;;;;;;13.00;7.47;;;14.90;99.90;;;;;;2088078;28;20021;-71
2022/05/21 03:58:48;;;;;;;10.45;6.93;;;15.00;99.90;;;;;;2087223;28;20132;-71
2022/05/21 03:59:48;;;;;;;12.15;7.38;;;14.90;99.90;;;;;;2087399;28;20029;-71
2022/05/21 04:00:50;;;;;;;10.40;7.40;;;14.90;99.90;;;;;;2086511;28;20095;-71
2022/05/21 04:01:50;;;;;;;13.20;7.45;;;14.90;99.90;;;;;;2083373;28;20025;-71
2022/05/21 04:02:51;;;;;;;10.35;6.93;;;15.00;99.90;;;;;;2085737;28;20046;-71
2022/05/21 04:03:54;;;;;;;11.18;7.28;;;14.90;99.90;;;;;;2086019;28;20025;-71
2022/05/21 04:04:55;;;;;;;9.82;6.95;;;14.90;99.90;;;;;;2084602;28;20519;-71
2022/05/21 04:05:57;;;;;;;7.63;6.50;;;14.90;99.90;;;;;;2085681;28;20471;-71
2022/05/21 04:06:58;;;;;;;12.80;7.30;;;14.90;99.90;;;;;;2090528;28;20020;-71
2022/05/21 04:07:58;;;;;;;10.57;7.97;;;14.90;99.90;;;;;;2087812;28;20024;-71
2022/05/21 04:08:59;;;;;;;9.25;6.20;;;14.90;99.90;;;;;;2087235;28;20052;-71
2022/05/21 04:10:00;;;;;;;9.82;7.35;;;14.90;99.90;;;;;;2084261;28;20037;-71
2022/05/21 04:11:01;;;;;;;12.38;7.22;;;14.90;99.90;;;;;;2086061;28;20029;-71
2022/05/21 04:12:03;;;;;;;16.65;7.25;;;14.90;99.90;;;;;;2086929;28;20048;-71
2022/05/21 04:13:04;;;;;;;14.05;7.40;;;14.90;99.90;;;;;;2088432;28;20025;-71
2022/05/21 04:14:06;;;;;;;11.13;7.28;;;14.90;99.90;;;;;;2086092;28;20485;-71
2022/05/21 04:15:08;;;;;;;10.60;7.25;;;14.90;99.90;;;;;;2082886;28;20029;-71
2022/05/21 04:16:08;;;;;;;9.10;6.97;;;14.90;99.90;;;;;;2088005;28;20021;-71
2022/05/21 04:17:13;;;;;;;11.98;7.53;;;14.90;99.90;;;;;;2086276;28;20082;-71
2022/05/21 04:18:14;;;;;;;12.63;7.57;;;14.90;99.90;;;;;;2083588;28;20033;-71
2022/05/21 04:19:14;;;;;;;14.00;7.40;;;14.90;99.90;;;;;;2085895;28;20028;-71
2022/05/21 04:20:17;;;;;;;10.25;7.63;;;15.00;99.90;;;;;;2085862;28;20111;-71
2022/05/21 04:21:17;;;;;;;13.63;8.55;;;14.90;99.90;;;;;;2089188;28;20049;-71
2022/05/21 04:22:18;;;;;;;12.52;7.45;;;14.90;99.90;;;;;;2090598;28;20083;-71
2022/05/21 04:23:18;;;;;;;12.98;7.47;;;15.00;99.90;;;;;;2084546;28;20033;-71
2022/05/21 04:24:19;;;;;;;10.93;7.25;;;15.00;99.90;;;;;;2090056;28;20025;-71
2022/05/21 04:25:20;;;;;;;12.57;7.13;;;15.00;99.90;;;;;;2084122;28;20543;-71
2022/05/21 04:26:21;;;;;;;12.95;7.63;;;15.00;99.90;;;;;;2083304;28;20017;-71
2022/05/21 04:27:21;;;;;;;10.15;7.70;;;15.00;99.90;;;;;;2086692;28;20045;-71
2022/05/21 04:28:22;;;;;;;11.82;7.68;;;15.00;99.90;;;;;;2081399;28;20025;-71
2022/05/21 04:29:23;;;;;;;13.60;7.85;;;15.00;99.90;;;;;;2089667;28;20026;-71
2022/05/21 04:30:28;;;;;;;12.63;7.75;;;15.10;99.90;;;;;;2084915;28;20124;-71
2022/05/21 04:31:28;;;;;;;13.75;7.65;;;15.10;99.90;;;;;;2084762;28;20025;-71
2022/05/21 04:32:29;;;;;;;11.30;7.43;;;15.10;99.90;;;;;;2088572;28;20481;-71
2022/05/21 04:33:29;;;;;;;10.90;7.38;;;15.10;99.90;;;;;;2087258;28;20469;-71
2022/05/21 04:34:30;;;;;;;10.50;7.75;;;15.10;99.90;;;;;;2088687;28;20554;-71
2022/05/21 04:36:50;;;;;;;12.05;6.88;;;15.10;99.90;;;;;;2087005;28;20020;-71
2022/05/21 04:37:51;;;;;;;15.00;8.38;;;15.10;99.90;;;;;;2088279;28;20125;-71
2022/05/21 04:38:53;;;;;;;16.55;9.18;;;15.10;99.90;;;;;;2089288;28;20020;-71
2022/05/21 04:39:54;;;;;;;15.40;10.55;;;15.10;99.90;;;;;;2087309;28;20110;-71
2022/05/21 04:40:54;;;;;;;18.67;10.27;;;15.10;99.90;;;;;;2085767;28;20036;-71
2022/05/21 04:41:55;;;;;;;16.70;10.85;;;15.10;99.90;;;;;;2085957;28;20759;-71
2022/05/21 04:42:56;;;;;;;18.10;10.55;;;15.10;99.90;;;;;;2087383;28;20041;-71
2022/05/21 04:43:56;;;;;;;13.07;9.27;;;15.10;99.90;;;;;;2083737;28;20085;-71
2022/05/21 04:44:57;;;;;;;18.73;11.30;;;15.10;99.90;;;;;;2089585;28;20086;-71
2022/05/21 04:45:57;;;;;;;17.33;13.95;;;15.10;99.90;;;;;;2091047;28;20100;-72
2022/05/21 04:46:59;;;;;;;21.60;13.88;;;15.10;99.90;;;;;;2084419;28;20039;-71
2022/05/21 04:48:07;;;;;;;19.45;13.20;;;15.10;99.90;;;;;;2088050;28;20039;-71
2022/05/21 04:49:07;;;;;;;16.95;10.65;;;15.10;99.90;;;;;;2083301;28;20025;-71
2022/05/21 04:50:09;;;;;;;14.20;10.70;;;15.10;99.90;;;;;;2084222;28;20056;-71
2022/05/21 04:51:10;;;;;;;13.63;10.40;;;15.10;99.90;;;;;;2082866;28;20087;-71
2022/05/21 04:52:10;;;;;;;13.05;10.05;;;15.10;99.90;;;;;;2084449;28;20091;-71
2022/05/21 04:53:11;;;;;;;14.07;9.02;;;15.10;99.90;;;;;;2087899;28;20079;-71
2022/05/21 04:54:11;;;;;;;14.60;8.40;;;15.10;99.90;;;;;;2087297;28;20021;-71
2022/05/21 04:55:12;;;;;;;16.27;8.93;;;15.10;99.90;;;;;;2081851;28;20408;-71
2022/05/21 04:56:13;;;;;;;11.13;7.97;;;15.10;99.90;;;;;;2086216;28;20388;-71
2022/05/21 04:57:14;;;;;;;15.40;8.07;;;15.10;99.90;;;;;;2082339;28;20033;-71
2022/05/21 04:58:14;;;;;;;15.32;8.52;;;15.10;99.90;;;;;;2086452;28;20029;-71
2022/05/21 04:59:15;;;;;;;17.00;8.90;;;15.10;99.90;;;;;;2086144;28;20032;-71
2022/05/21 05:00:16;;;;;;;12.15;7.65;;;15.10;99.90;;;;;;2088172;28;20025;-71
2022/05/21 05:01:16;;;;;;;11.40;8.10;;;15.10;99.90;;;;;;2090952;28;20023;-71
2022/05/21 05:02:17;;;;;;;11.55;7.50;;;15.10;99.90;;;;;;2085301;28;20519;-71
2022/05/21 05:03:18;;;;;;;12.60;8.77;;;15.10;99.90;;;;;;2083907;28;20415;-71
2022/05/21 05:04:18;;;;;;;13.30;8.63;;;15.10;99.90;;;;;;2084207;28;20025;-71
2022/05/21 05:05:19;;;;;;;12.48;7.88;;;15.10;99.90;;;;;;2082727;28;20036;-71
2022/05/21 05:06:20;;;;;;;10.50;7.60;;;15.10;99.90;;;;;;2082607;28;20029;-72
2022/05/21 05:07:22;;;;;;;13.57;8.15;;;15.10;99.90;;;;;;2083913;28;20025;-71
2022/05/21 05:08:23;;;;;;;14.13;7.57;;;15.10;99.90;;;;;;2086538;28;20013;-71
2022/05/21 05:09:24;;;;;;;14.75;8.23;;;15.10;99.90;;;;;;2087401;28;20081;-71
2022/05/21 05:10:25;;;;;;;11.68;7.85;;;15.10;99.90;;;;;;2081667;28;20037;-71
2022/05/21 05:11:27;;;;;;;11.82;7.80;;;15.10;99.90;;;;;;2087732;28;20162;-71
2022/05/21 05:12:27;;;;;;;14.43;8.68;;;15.20;99.90;;;;;;2087180;28;20033;-71
2022/05/21 05:13:28;;;;;;;11.23;7.57;;;15.20;99.90;;;;;;2082708;28;20025;-71
2022/05/21 05:14:28;;;;;;;10.05;7.55;;;15.20;99.90;;;;;;2083771;28;20057;-71
2022/05/21 05:15:29;;;;;;;18.17;9.27;;;15.20;99.90;;;;;;2084243;28;20463;-72
2022/05/21 05:16:30;;;;;;;14.60;8.05;;;15.20;99.90;;;;;;2082476;28;20076;-72
2022/05/21 05:17:30;;;;;;;14.18;8.75;;;15.20;99.90;;;;;;2084509;28;20018;-71
2022/05/21 05:18:31;;;;;;;16.02;8.07;;;15.20;99.90;;;;;;2083346;28;20488;-71
2022/05/21 05:19:33;;;;;;;11.20;7.80;;;15.20;99.90;;;;;;2081809;28;20024;-71
2022/05/21 05:20:35;;;;;;;12.38;7.53;;;15.20;99.90;;;;;;2083261;28;20016;-72
2022/05/21 05:21:35;;;;;;;13.95;8.13;;;15.30;99.90;;;;;;2083329;28;20047;-72
2022/05/21 05:22:36;;;;;;;11.52;7.80;;;15.30;99.90;;;;;;2082786;28;20056;-72
2022/05/21 05:23:36;;;;;;;11.38;7.28;;;15.30;99.90;;;;;;2082862;28;20048;-72
2022/05/21 05:24:37;;;;;;;13.45;7.45;;;15.30;99.90;;;;;;2082643;28;20104;-72
2022/05/21 05:25:38;;;;;;;14.48;7.75;;;15.40;99.90;;;;;;2081392;28;20020;-72
2022/05/21 05:26:38;;;;;;;12.32;7.25;;;15.30;99.90;;;;;;2086049;28;20017;-71
2022/05/21 05:27:39;;;;;;;11.57;7.55;;;15.40;99.90;;;;;;2083266;28;20017;-71
2022/05/21 05:28:40;;;;;;;11.55;7.53;;;15.40;99.90;;;;;;2082859;28;20092;-71